Time;durP1;ratioP1;P1;durP2;ratioP2;P2;SDS_P1;SDS_P2;PMS_P1;PMS_P2;Temp;Humidity;BMP_temperature;BMP_pressure;BME280_temperature;BME280_humidity;BME280_pressure;Samples;Min_cycle;Max_cycle;Signal;HPM_P1;HPM_P2
2021/03/24 00:01:06;;;;;;;29.88;17.83;;;3.40;99.90;;;;;;4975713;28;20134;-86
2021/03/24 00:03:32;;;;;;;29.60;17.23;;;3.40;99.90;;;;;;4976237;28;20130;-86
2021/03/24 00:05:59;;;;;;;28.00;17.00;;;3.40;99.90;;;;;;4959208;28;20095;-86
2021/03/24 00:08:26;;;;;;;27.08;15.75;;;3.40;99.90;;;;;;4975831;28;20081;-86
2021/03/24 00:10:52;;;;;;;26.23;15.70;;;3.50;99.90;;;;;;4975085;28;20113;-86
2021/03/24 00:13:19;;;;;;;26.02;15.77;;;3.60;99.90;;;;;;4974852;28;20518;-86
2021/03/24 00:15:45;;;;;;;28.02;15.75;;;3.60;99.90;;;;;;4958975;28;20085;-86
2021/03/24 00:18:11;;;;;;;24.20;14.80;;;3.70;99.90;;;;;;4958763;28;20055;-86
2021/03/24 00:20:40;;;;;;;26.02;15.88;;;3.70;99.90;;;;;;4958922;28;20137;-86
2021/03/24 00:23:08;;;;;;;27.33;16.10;;;3.70;99.90;;;;;;4975801;28;20083;-85
2021/03/24 00:25:35;;;;;;;25.08;15.60;;;3.80;99.90;;;;;;4958515;28;20057;-86
2021/03/24 00:28:02;;;;;;;26.80;16.88;;;3.70;99.90;;;;;;4975634;28;20427;-86
2021/03/24 00:30:35;;;;;;;26.80;15.88;;;3.70;99.90;;;;;;4958140;28;20046;-87
2021/03/24 00:33:02;;;;;;;24.00;16.20;;;3.60;99.90;;;;;;4958350;28;20089;-86
2021/03/24 00:35:28;;;;;;;29.02;16.65;;;3.60;99.90;;;;;;4975297;28;20077;-86
2021/03/24 00:37:55;;;;;;;30.55;17.17;;;3.70;99.90;;;;;;4961417;28;20133;-86
2021/03/24 00:40:43;;;;;;;28.90;16.55;;;3.60;99.90;;;;;;4976876;28;20097;-86
2021/03/24 00:43:10;;;;;;;33.67;17.05;;;3.70;99.90;;;;;;4958260;28;20496;-87
2021/03/24 00:45:38;;;;;;;29.40;16.65;;;3.60;99.90;;;;;;4958275;28;20050;-86
2021/03/24 00:48:07;;;;;;;27.58;15.88;;;3.60;99.90;;;;;;4957983;28;20086;-85
2021/03/24 00:50:35;;;;;;;27.13;15.32;;;3.60;99.90;;;;;;4957963;28;20134;-86
2021/03/24 00:53:02;;;;;;;26.60;15.70;;;3.70;99.90;;;;;;4957987;28;20550;-86
2021/03/24 00:55:29;;;;;;;27.35;15.63;;;3.70;99.90;;;;;;4975283;28;20085;-87
2021/03/24 00:57:56;;;;;;;29.77;16.00;;;3.70;99.90;;;;;;4974859;28;20102;-86
2021/03/24 01:00:26;;;;;;;25.92;16.27;;;3.80;99.90;;;;;;4958207;28;20051;-85
2021/03/24 01:02:53;;;;;;;29.70;16.17;;;3.90;99.90;;;;;;4974037;28;20054;-86
2021/03/24 01:05:22;;;;;;;26.38;16.40;;;3.90;99.90;;;;;;4974982;28;20054;-86
2021/03/24 01:07:56;;;;;;;30.20;16.00;;;3.90;99.90;;;;;;4957685;28;20073;-85
2021/03/24 01:10:28;;;;;;;28.80;16.30;;;3.90;99.90;;;;;;4974840;28;20138;-87
2021/03/24 01:12:54;;;;;;;25.88;15.43;;;3.80;99.90;;;;;;4973866;28;20043;-86
2021/03/24 01:15:21;;;;;;;27.70;15.43;;;3.80;99.90;;;;;;4974834;28;20167;-85
2021/03/24 01:17:48;;;;;;;29.13;16.88;;;3.90;99.90;;;;;;4957779;28;20411;-86
2021/03/24 01:20:16;;;;;;;25.58;15.43;;;3.90;99.90;;;;;;4975086;28;20523;-86
2021/03/24 01:22:52;;;;;;;25.63;16.38;;;3.90;99.90;;;;;;4975196;28;20527;-86
2021/03/24 01:25:19;;;;;;;27.65;16.50;;;3.80;99.90;;;;;;4957743;28;20133;-87
2021/03/24 01:27:45;;;;;;;29.00;15.88;;;3.80;99.90;;;;;;4974593;28;20082;-86
2021/03/24 01:30:12;;;;;;;30.30;16.42;;;3.90;99.90;;;;;;4974497;28;20051;-87
2021/03/24 01:32:39;;;;;;;27.10;15.35;;;3.90;99.90;;;;;;4957288;28;20050;-87
2021/03/24 01:35:07;;;;;;;28.35;16.92;;;3.90;99.90;;;;;;4973706;28;20126;-86
2021/03/24 01:37:33;;;;;;;31.25;17.10;;;3.70;99.90;;;;;;4957468;28;20055;-86
2021/03/24 01:40:00;;;;;;;26.88;16.75;;;3.80;99.90;;;;;;4957529;28;20484;-86
2021/03/24 01:42:26;;;;;;;28.83;17.10;;;3.70;99.90;;;;;;4957522;28;20097;-86
2021/03/24 01:45:27;;;;;;;28.60;15.73;;;3.60;99.90;;;;;;4973267;28;20057;-86
2021/03/24 01:47:56;;;;;;;26.02;15.13;;;3.60;99.90;;;;;;4956892;28;20137;-86
2021/03/24 01:50:33;;;;;;;27.15;15.70;;;3.60;99.90;;;;;;4957274;28;20089;-86
2021/03/24 01:53:15;;;;;;;26.77;16.15;;;3.60;99.90;;;;;;4977013;28;20061;-86
2021/03/24 01:55:41;;;;;;;26.23;15.73;;;3.60;99.90;;;;;;4964395;28;20054;-87
2021/03/24 01:58:08;;;;;;;27.63;16.60;;;3.60;99.90;;;;;;4957299;28;20141;-86
2021/03/24 02:00:41;;;;;;;27.83;17.00;;;3.50;99.90;;;;;;4969520;28;20047;-86
2021/03/24 02:03:07;;;;;;;28.08;16.13;;;3.50;99.90;;;;;;4957403;28;20238;-86
2021/03/24 02:05:34;;;;;;;27.30;16.00;;;3.40;99.90;;;;;;4957232;28;20047;-86
2021/03/24 02:08:08;;;;;;;29.73;17.30;;;3.50;99.90;;;;;;4974244;28;20169;-86
2021/03/24 02:10:46;;;;;;;34.92;17.42;;;3.40;99.90;;;;;;4974102;28;20054;-86
2021/03/24 02:13:22;;;;;;;31.35;17.20;;;3.40;99.90;;;;;;4957520;28;20053;-86
2021/03/24 02:15:58;;;;;;;27.83;15.98;;;3.50;99.90;;;;;;4973278;28;20126;-86
2021/03/24 02:18:27;;;;;;;27.23;16.10;;;3.50;99.90;;;;;;4974165;28;20101;-86
2021/03/24 02:21:00;;;;;;;27.70;16.83;;;3.50;99.90;;;;;;4974319;28;20054;-86
2021/03/24 02:23:38;;;;;;;30.45;17.00;;;3.50;99.90;;;;;;4974065;28;20062;-86
2021/03/24 02:26:43;;;;;;;31.95;17.30;;;3.50;99.90;;;;;;4977936;28;20047;-86
2021/03/24 02:29:15;;;;;;;29.05;16.02;;;3.50;99.90;;;;;;4960901;28;20485;-86
2021/03/24 02:31:42;;;;;;;28.50;16.88;;;3.50;99.90;;;;;;4976784;28;20058;-86
2021/03/24 02:34:16;;;;;;;26.65;16.45;;;3.60;99.90;;;;;;4977059;28;20134;-85
2021/03/24 02:36:42;;;;;;;30.67;17.10;;;3.60;99.90;;;;;;4977841;28;20055;-86
2021/03/24 02:39:11;;;;;;;31.95;16.40;;;3.50;99.90;;;;;;4977832;28;20055;-86
2021/03/24 02:41:39;;;;;;;26.58;16.42;;;3.50;99.90;;;;;;4960624;28;20521;-86
2021/03/24 02:44:06;;;;;;;30.17;16.77;;;3.50;99.90;;;;;;4977458;28;20410;-86
2021/03/24 02:46:33;;;;;;;28.35;16.65;;;3.60;99.90;;;;;;4959999;28;20133;-86
2021/03/24 02:49:03;;;;;;;27.73;16.20;;;3.60;99.90;;;;;;4960461;28;20110;-86
2021/03/24 02:51:30;;;;;;;30.20;16.20;;;3.60;99.90;;;;;;4960257;28;20074;-86
2021/03/24 02:54:07;;;;;;;35.73;17.23;;;3.60;99.90;;;;;;4977556;28;20519;-86
2021/03/24 02:56:34;;;;;;;28.92;16.27;;;3.70;99.90;;;;;;4977554;28;20365;-85
2021/03/24 02:59:00;;;;;;;31.85;17.02;;;3.70;99.90;;;;;;4977525;28;20139;-87
2021/03/24 03:01:38;;;;;;;35.25;19.08;;;3.70;99.90;;;;;;4978102;28;20483;-87
2021/03/24 03:04:20;;;;;;;29.10;16.58;;;3.80;99.90;;;;;;4960436;28;20503;-87
2021/03/24 03:06:48;;;;;;;28.95;16.98;;;3.80;99.90;;;;;;4977379;28;20126;-87
2021/03/24 03:09:29;;;;;;;27.02;15.52;;;3.90;99.90;;;;;;4980671;28;20046;-87
2021/03/24 03:12:11;;;;;;;25.05;15.65;;;3.90;99.90;;;;;;4963242;28;20089;-86
2021/03/24 03:14:52;;;;;;;29.45;16.88;;;3.90;99.90;;;;;;4959863;28;20586;-86
2021/03/24 03:17:24;;;;;;;27.70;16.00;;;3.90;99.90;;;;;;4976995;28;20472;-87
2021/03/24 03:20:09;;;;;;;29.77;16.25;;;3.90;99.90;;;;;;4959829;28;20065;-86
2021/03/24 03:22:41;;;;;;;26.73;15.77;;;3.90;99.90;;;;;;4975582;28;20047;-87
2021/03/24 03:25:24;;;;;;;26.92;16.25;;;3.90;99.90;;;;;;4976990;28;20487;-85
2021/03/24 03:27:53;;;;;;;31.80;16.27;;;3.90;99.90;;;;;;4959560;28;20055;-87
2021/03/24 03:30:25;;;;;;;30.10;16.25;;;3.90;99.90;;;;;;4959492;28;20074;-86
2021/03/24 03:32:53;;;;;;;27.08;16.92;;;3.90;99.90;;;;;;4959490;28;20077;-87
2021/03/24 03:35:23;;;;;;;24.52;15.52;;;3.90;99.90;;;;;;4959132;28;20059;-86
2021/03/24 03:37:53;;;;;;;28.05;16.75;;;3.90;99.90;;;;;;4959141;28;20061;-86
2021/03/24 03:40:21;;;;;;;24.48;15.80;;;3.90;99.90;;;;;;4976892;28;20141;-87
2021/03/24 03:42:48;;;;;;;31.50;16.90;;;3.90;99.90;;;;;;4959685;28;20150;-87
2021/03/24 03:45:15;;;;;;;31.70;17.70;;;3.90;99.90;;;;;;4959541;28;20114;-87
2021/03/24 03:47:43;;;;;;;29.80;16.35;;;3.90;99.90;;;;;;4974931;28;20105;-86
2021/03/24 03:50:15;;;;;;;25.27;15.32;;;3.90;99.90;;;;;;4959531;28;20063;-86
2021/03/24 03:53:06;;;;;;;30.95;16.60;;;3.90;99.90;;;;;;4959438;28;20463;-87
2021/03/24 03:55:37;;;;;;;29.65;17.17;;;3.90;99.90;;;;;;4976375;28;20117;-87
2021/03/24 03:58:23;;;;;;;29.40;17.13;;;3.90;99.90;;;;;;4976252;28;20089;-87
2021/03/24 04:00:59;;;;;;;30.08;17.50;;;3.90;99.90;;;;;;4976195;28;20575;-83
2021/03/24 04:03:34;;;;;;;29.50;17.95;;;3.90;99.90;;;;;;4959188;28;20051;-87
2021/03/24 04:06:17;;;;;;;28.08;17.25;;;3.90;99.90;;;;;;4959014;28;20555;-87
2021/03/24 04:08:47;;;;;;;30.92;17.92;;;3.90;99.90;;;;;;4975054;28;20077;-86
2021/03/24 04:11:15;;;;;;;30.90;18.45;;;3.80;99.90;;;;;;4959117;28;20142;-87
2021/03/24 04:13:46;;;;;;;31.80;17.75;;;3.60;99.90;;;;;;4958751;28;20488;-87
2021/03/24 04:16:12;;;;;;;32.63;17.42;;;3.60;99.90;;;;;;4976129;28;20109;-87
2021/03/24 04:18:48;;;;;;;27.75;17.10;;;3.60;99.90;;;;;;4975799;28;20054;-86
2021/03/24 04:21:15;;;;;;;26.83;16.80;;;3.40;99.90;;;;;;4958946;28;20050;-87
2021/03/24 04:23:45;;;;;;;27.58;16.40;;;3.40;99.90;;;;;;4958581;28;20075;-86
2021/03/24 04:26:27;;;;;;;36.08;18.20;;;3.30;99.90;;;;;;4962853;28;20419;-87
2021/03/24 04:28:58;;;;;;;28.88;17.80;;;3.20;99.90;;;;;;4958689;28;20094;-86
2021/03/24 04:31:27;;;;;;;32.65;17.80;;;3.00;99.90;;;;;;4958468;28;20475;-87
2021/03/24 04:33:53;;;;;;;31.20;18.15;;;2.80;99.90;;;;;;4958790;28;20110;-86
2021/03/24 04:36:32;;;;;;;29.95;16.63;;;2.50;99.90;;;;;;4975053;28;20090;-86
2021/03/24 04:39:08;;;;;;;33.63;17.23;;;2.50;99.90;;;;;;4974713;28;20482;-87
2021/03/24 04:41:39;;;;;;;32.72;17.33;;;2.20;99.90;;;;;;4958380;28;20046;-87
2021/03/24 04:44:23;;;;;;;33.78;17.83;;;2.10;99.90;;;;;;4975304;28;20093;-87
2021/03/24 04:46:54;;;;;;;34.25;18.10;;;1.90;99.90;;;;;;4974864;28;20462;-86
2021/03/24 04:49:24;;;;;;;34.58;18.33;;;1.80;99.90;;;;;;4974394;28;20061;-86
2021/03/24 04:51:51;;;;;;;38.78;19.42;;;1.70;99.90;;;;;;4974421;28;20064;-86
2021/03/24 04:54:33;;;;;;;36.28;19.08;;;1.60;99.90;;;;;;4958123;28;20109;-86
2021/03/24 04:57:21;;;;;;;37.35;19.13;;;1.50;99.90;;;;;;4958114;28;20125;-87
2021/03/24 04:59:50;;;;;;;44.00;20.65;;;1.50;99.90;;;;;;4958231;28;20055;-87
2021/03/24 05:02:22;;;;;;;39.65;18.67;;;1.40;99.90;;;;;;4974940;28;20537;-87
2021/03/24 05:05:00;;;;;;;33.80;17.88;;;1.40;99.90;;;;;;4975201;28;20054;-87
2021/03/24 05:07:35;;;;;;;49.15;19.85;;;1.30;99.90;;;;;;4957937;28;20050;-86
2021/03/24 05:10:05;;;;;;;40.72;20.50;;;1.30;99.90;;;;;;4973656;28;20137;-86
2021/03/24 05:12:39;;;;;;;43.95;20.85;;;1.30;99.90;;;;;;4974877;28;20525;-84
2021/03/24 05:15:20;;;;;;;39.70;20.17;;;1.30;99.90;;;;;;4974742;28;20141;-86
2021/03/24 05:17:47;;;;;;;48.35;20.70;;;1.20;99.90;;;;;;4957890;28;20132;-86
2021/03/24 05:20:29;;;;;;;49.88;23.05;;;1.20;99.90;;;;;;4974781;28;20051;-84
2021/03/24 05:22:56;;;;;;;48.20;23.88;;;1.30;99.90;;;;;;4974095;28;20484;-87
2021/03/24 05:25:36;;;;;;;52.00;21.50;;;1.30;99.90;;;;;;4957527;28;20047;-87
2021/03/24 05:28:30;;;;;;;48.15;21.33;;;1.30;99.90;;;;;;4957778;28;20160;-87
2021/03/24 05:31:05;;;;;;;46.95;22.25;;;1.30;99.90;;;;;;4973685;28;20133;-87
2021/03/24 05:33:42;;;;;;;47.58;23.75;;;1.30;99.90;;;;;;4974372;28;20058;-87
2021/03/24 05:36:27;;;;;;;55.00;23.95;;;1.30;99.90;;;;;;4957543;28;20158;-87
2021/03/24 05:38:54;;;;;;;55.20;24.60;;;1.20;99.90;;;;;;4974583;28;20415;-87
2021/03/24 05:41:44;;;;;;;56.13;22.98;;;1.30;99.90;;;;;;4976374;28;20087;-84
2021/03/24 05:44:38;;;;;;;55.20;24.17;;;1.40;99.90;;;;;;4957332;28;20051;-86
2021/03/24 05:47:24;;;;;;;51.70;23.83;;;1.50;99.90;;;;;;4974083;28;20062;-86
2021/03/24 05:50:28;;;;;;;56.90;23.75;;;1.50;99.90;;;;;;4957225;28;20050;-84
2021/03/24 05:53:32;;;;;;;57.20;24.70;;;1.60;99.90;;;;;;4974744;28;20055;-86
2021/03/24 05:56:31;;;;;;;48.45;21.73;;;1.60;99.90;;;;;;4974536;28;20054;-86
2021/03/24 05:59:06;;;;;;;49.28;22.85;;;1.60;99.90;;;;;;4975071;28;20451;-86
2021/03/24 06:01:45;;;;;;;61.47;23.02;;;1.70;99.90;;;;;;4977397;28;20101;-84
2021/03/24 06:04:15;;;;;;;50.45;22.58;;;1.70;99.90;;;;;;4978339;28;20050;-83
2021/03/24 06:07:08;;;;;;;51.78;22.10;;;1.80;99.90;;;;;;4961086;28;20142;-87
2021/03/24 06:10:04;;;;;;;48.75;22.95;;;1.90;99.90;;;;;;4961050;28;20047;-87
2021/03/24 06:13:02;;;;;;;47.42;21.35;;;1.90;99.90;;;;;;4978310;28;20082;-87
2021/03/24 06:15:37;;;;;;;42.80;20.92;;;2.10;99.90;;;;;;4961187;28;20066;-86
2021/03/24 06:18:35;;;;;;;39.45;20.77;;;2.20;99.90;;;;;;4961051;28;20130;-86
2021/03/24 06:21:20;;;;;;;38.90;21.17;;;2.40;99.90;;;;;;4960986;28;20050;-87
2021/03/24 06:23:56;;;;;;;40.50;20.48;;;2.70;99.90;;;;;;4976641;28;20134;-86
2021/03/24 06:27:06;;;;;;;36.45;21.95;;;3.00;99.90;;;;;;4978022;28;20073;-86
2021/03/24 06:30:17;;;;;;;39.33;23.30;;;3.30;99.90;;;;;;4976841;28;20086;-86
2021/03/24 06:33:15;;;;;;;27.15;17.92;;;3.60;99.90;;;;;;4942957;28;20150;-86
2021/03/24 06:36:00;;;;;;;33.35;16.65;;;3.90;99.90;;;;;;4960375;28;20597;-86
2021/03/24 06:38:35;;;;;;;27.23;15.45;;;4.20;99.90;;;;;;4976513;28;20078;-86
2021/03/24 06:41:27;;;;;;;28.20;17.13;;;4.70;99.90;;;;;;4977999;28;20054;-86
2021/03/24 06:44:26;;;;;;;29.38;17.13;;;5.20;99.90;;;;;;4977608;28;20051;-86
2021/03/24 06:47:22;;;;;;;25.92;16.52;;;5.80;99.90;;;;;;4977232;28;20047;-86
2021/03/24 06:50:26;;;;;;;26.13;15.85;;;6.40;99.90;;;;;;4976578;28;20138;-86
2021/03/24 06:53:36;;;;;;;31.63;15.88;;;6.90;99.90;;;;;;4976618;28;20059;-87
2021/03/24 06:56:40;;;;;;;24.05;15.45;;;7.40;99.90;;;;;;4977707;28;20145;-87
2021/03/24 06:59:37;;;;;;;22.48;15.57;;;8.10;99.90;;;;;;4980890;28;20097;-86
2021/03/24 07:02:12;;;;;;;23.38;15.25;;;8.00;99.90;;;;;;4976470;28;20471;-86
2021/03/24 07:05:21;;;;;;;24.60;15.07;;;8.00;99.90;;;;;;4977537;28;20086;-86
2021/03/24 07:08:14;;;;;;;41.15;16.30;;;8.50;99.90;;;;;;4960022;28;20111;-87
2021/03/24 07:11:17;;;;;;;28.25;14.40;;;8.50;99.90;;;;;;4960127;28;20097;-86
2021/03/24 07:14:08;;;;;;;23.95;15.75;;;9.00;99.90;;;;;;4977127;28;20459;-87
2021/03/24 07:16:35;;;;;;;27.48;14.63;;;9.00;99.90;;;;;;4960241;28;20050;-86
2021/03/24 07:19:20;;;;;;;93.85;42.28;;;9.00;99.90;;;;;;4977074;28;20043;-86
2021/03/24 07:22:11;;;;;;;41.00;21.55;;;8.80;99.90;;;;;;4976245;28;20435;-86
2021/03/24 07:24:53;;;;;;;44.35;22.00;;;9.00;99.90;;;;;;4960018;28;20125;-86
2021/03/24 07:28:00;;;;;;;47.42;26.48;;;9.20;99.90;;;;;;4976678;28;20062;-86
2021/03/24 07:30:38;;;;;;;34.63;16.77;;;9.40;99.90;;;;;;4959628;28;20578;-87
2021/03/24 07:33:44;;;;;;;46.97;27.05;;;10.80;99.90;;;;;;4962243;28;20055;-86
2021/03/24 07:36:42;;;;;;;49.38;26.75;;;11.10;99.90;;;;;;4976464;28;20062;-86
2021/03/24 07:39:38;;;;;;;24.33;15.52;;;11.90;99.90;;;;;;4959758;28;20051;-85
2021/03/24 07:42:10;;;;;;;82.13;37.67;;;12.80;99.90;;;;;;4976440;28;20050;-85
2021/03/24 07:44:46;;;;;;;42.63;22.60;;;12.50;99.00;;;;;;4976506;28;20130;-85
2021/03/24 07:47:49;;;;;;;21.73;12.68;;;13.10;99.90;;;;;;4975575;28;20054;-85
2021/03/24 07:50:36;;;;;;;35.30;17.08;;;14.50;95.70;;;;;;4976139;28;20058;-85
2021/03/24 07:53:22;;;;;;;22.75;14.48;;;14.30;93.70;;;;;;4959053;28;20521;-85
2021/03/24 07:56:05;;;;;;;33.75;16.63;;;14.10;92.50;;;;;;4976601;28;20066;-85
2021/03/24 07:59:09;;;;;;;26.77;15.52;;;15.20;87.80;;;;;;4976298;28;20042;-85
2021/03/24 08:02:06;;;;;;;87.07;39.17;;;14.90;88.70;;;;;;4959254;28;20113;-85
2021/03/24 08:04:38;;;;;;;24.17;15.07;;;16.40;82.80;;;;;;4976427;28;20074;-85
2021/03/24 08:07:29;;;;;;;28.15;15.20;;;17.10;72.20;;;;;;4976397;28;20051;-85
2021/03/24 08:10:17;;;;;;;23.55;14.73;;;17.10;68.80;;;;;;4974964;28;20591;-84
2021/03/24 08:13:14;;;;;;;36.03;15.43;;;17.60;68.70;;;;;;4977298;28;20479;-84
2021/03/24 08:15:56;;;;;;;23.13;14.57;;;18.10;63.90;;;;;;4962277;28;20062;-85
2021/03/24 08:18:49;;;;;;;26.35;15.65;;;17.90;64.10;;;;;;4975841;28;20133;-84
2021/03/24 08:21:15;;;;;;;27.63;15.02;;;18.20;62.80;;;;;;4975864;28;20054;-85
2021/03/24 08:24:14;;;;;;;22.48;15.38;;;18.50;62.20;;;;;;4975568;28;20086;-85
2021/03/24 08:26:50;;;;;;;27.33;15.68;;;17.70;61.20;;;;;;4958966;28;20082;-85
2021/03/24 08:29:39;;;;;;;21.83;15.02;;;17.90;62.10;;;;;;4958836;28;20062;-85
2021/03/24 08:32:48;;;;;;;25.30;15.20;;;18.00;60.70;;;;;;4975445;28;20135;-85
2021/03/24 08:35:25;;;;;;;21.48;13.57;;;18.30;62.20;;;;;;4975808;28;20058;-84
2021/03/24 08:38:10;;;;;;;19.02;14.50;;;19.30;58.70;;;;;;4975618;28;20156;-85
2021/03/24 08:41:11;;;;;;;20.20;14.63;;;19.10;57.40;;;;;;4958588;28;20110;-85
2021/03/24 08:43:43;;;;;;;19.67;13.98;;;19.80;57.10;;;;;;4958481;28;20083;-85
2021/03/24 08:46:18;;;;;;;24.83;14.30;;;20.10;57.20;;;;;;4974539;28;20141;-85
2021/03/24 08:48:44;;;;;;;20.65;13.63;;;20.10;55.10;;;;;;4975278;28;20050;-85
2021/03/24 08:51:29;;;;;;;24.77;14.90;;;20.40;55.20;;;;;;4975751;28;20050;-85
2021/03/24 08:54:27;;;;;;;20.95;14.15;;;20.60;53.80;;;;;;4975405;28;20090;-84
2021/03/24 08:57:14;;;;;;;21.55;14.80;;;20.00;53.70;;;;;;4974217;28;20097;-84
2021/03/24 08:59:45;;;;;;;17.63;12.82;;;20.20;54.00;;;;;;4975335;28;20121;-85
2021/03/24 09:02:37;;;;;;;16.70;13.23;;;21.40;54.00;;;;;;4958054;28;20495;-85
2021/03/24 09:05:10;;;;;;;22.05;14.05;;;21.60;53.00;;;;;;4968450;28;20482;-85
2021/03/24 09:07:47;;;;;;;;;;;21.90;51.50;;;;;;4978013;28;20054;-85
2021/03/24 09:10:48;;;;;;;18.42;13.75;;;21.80;50.60;;;;;;4993363;28;20294;-84
2021/03/24 09:13:18;;;;;;;21.45;14.75;;;22.10;51.40;;;;;;4977050;28;20042;-85
2021/03/24 09:16:19;;;;;;;19.42;13.05;;;22.10;50.40;;;;;;4994352;28;20082;-84
2021/03/24 09:19:08;;;;;;;21.67;13.73;;;22.50;48.50;;;;;;4977109;28;20054;-85
2021/03/24 09:21:51;;;;;;;20.35;13.70;;;21.30;50.70;;;;;;4977028;28;20085;-84
2021/03/24 09:24:51;;;;;;;23.35;13.77;;;21.50;51.10;;;;;;4977292;28;20046;-85
2021/03/24 09:27:34;;;;;;;18.48;13.60;;;23.10;50.10;;;;;;4977147;28;20133;-85
2021/03/24 09:30:23;;;;;;;19.63;13.18;;;23.20;48.70;;;;;;4984997;28;20054;-84
2021/03/24 09:33:05;;;;;;;16.63;12.23;;;22.30;49.00;;;;;;4977742;28;20427;-85
2021/03/24 09:35:46;;;;;;;16.48;12.80;;;22.60;49.40;;;;;;4992442;28;20385;-85
2021/03/24 09:38:20;;;;;;;18.77;12.40;;;22.30;48.60;;;;;;4976858;28;20042;-85
2021/03/24 09:40:50;;;;;;;22.48;13.63;;;21.70;48.30;;;;;;4977247;28;20050;-86
2021/03/24 09:43:29;;;;;;;35.50;13.60;;;21.30;50.40;;;;;;4977128;28;20053;-85
2021/03/24 09:46:08;;;;;;;19.42;12.57;;;21.70;50.20;;;;;;4993987;28;20077;-85
2021/03/24 09:48:48;;;;;;;16.70;12.85;;;22.70;48.50;;;;;;4993570;28;20082;-85
2021/03/24 09:51:38;;;;;;;18.27;12.43;;;24.00;46.40;;;;;;4994015;28;20054;-85
2021/03/24 09:54:23;;;;;;;17.45;12.45;;;23.90;46.20;;;;;;4993861;28;20146;-84
2021/03/24 09:57:08;;;;;;;22.10;12.35;;;23.50;45.90;;;;;;4976856;28;20503;-85
2021/03/24 09:59:54;;;;;;;20.10;11.90;;;23.70;46.80;;;;;;4993977;28;20124;-86
2021/03/24 10:02:27;;;;;;;21.70;11.88;;;23.80;45.30;;;;;;4993636;28;20125;-85
2021/03/24 10:04:59;;;;;;;21.88;12.25;;;23.40;44.90;;;;;;4976766;28;20046;-85
2021/03/24 10:07:30;;;;;;;18.30;11.82;;;22.70;46.10;;;;;;4976545;28;20089;-86
2021/03/24 10:10:23;;;;;;;13.93;11.32;;;23.60;46.50;;;;;;4976359;28;20051;-85
2021/03/24 10:13:02;;;;;;;16.77;11.63;;;23.60;45.70;;;;;;4993750;28;20062;-85
2021/03/24 10:15:34;;;;;;;22.05;12.77;;;23.50;46.00;;;;;;4974278;28;20471;-85
2021/03/24 10:18:06;;;;;;;18.73;12.73;;;22.80;46.40;;;;;;4976852;28;20071;-85
2021/03/24 10:20:51;;;;;;;21.17;11.37;;;23.00;47.30;;;;;;4993788;28;20054;-85
2021/03/24 10:23:34;;;;;;;16.58;11.55;;;23.20;45.90;;;;;;4976047;28;20124;-85
2021/03/24 10:26:14;;;;;;;27.17;12.27;;;22.80;46.90;;;;;;4976493;28;20514;-85
2021/03/24 10:29:00;;;;;;;14.27;11.48;;;22.30;46.10;;;;;;4993535;28;20057;-85
2021/03/24 10:31:39;;;;;;;37.90;13.07;;;23.50;45.60;;;;;;4976086;28;20141;-86
2021/03/24 10:34:25;;;;;;;17.25;13.10;;;24.20;44.50;;;;;;4976809;28;20103;-85
2021/03/24 10:37:01;;;;;;;15.27;11.30;;;23.50;44.40;;;;;;4976674;28;20495;-86
2021/03/24 10:39:42;;;;;;;18.73;12.02;;;23.90;44.40;;;;;;4976607;28;20137;-85
2021/03/24 10:42:30;;;;;;;16.95;11.40;;;24.10;44.50;;;;;;4993740;28;20054;-85
2021/03/24 10:45:22;;;;;;;19.08;11.30;;;23.80;44.20;;;;;;4999719;28;20119;-87
2021/03/24 10:47:58;;;;;;;16.67;10.63;;;24.30;43.80;;;;;;4973329;28;20051;-86
2021/03/24 10:50:24;;;;;;;15.73;11.23;;;25.10;43.20;;;;;;4997200;28;20458;-85
2021/03/24 10:53:14;;;;;;;31.50;11.93;;;24.10;42.70;;;;;;4980116;28;20104;-86
2021/03/24 10:55:43;;;;;;;15.50;11.52;;;22.60;45.80;;;;;;4997159;28;20499;-85
2021/03/24 10:58:33;;;;;;;18.27;11.00;;;22.70;44.80;;;;;;4996974;28;20148;-86
2021/03/24 11:01:11;;;;;;;21.63;11.63;;;23.20;44.20;;;;;;4997061;28;20137;-85
2021/03/24 11:04:19;;;;;;;20.33;12.20;;;23.20;43.80;;;;;;4997229;28;20080;-86
2021/03/24 11:06:54;;;;;;;16.48;12.10;;;23.60;44.30;;;;;;4959854;28;20046;-86
2021/03/24 11:09:48;;;;;;;32.42;12.25;;;23.60;43.50;;;;;;4996949;28;20062;-86
2021/03/24 11:12:18;;;;;;;27.35;11.70;;;24.40;43.60;;;;;;4979838;28;20564;-85
2021/03/24 11:15:07;;;;;;;18.08;11.75;;;24.60;44.20;;;;;;4997782;28;20050;-86
2021/03/24 11:17:38;;;;;;;13.65;11.07;;;23.20;44.00;;;;;;4996757;28;20061;-86
2021/03/24 11:20:11;;;;;;;21.70;12.23;;;24.30;43.00;;;;;;4996843;28;20422;-86
2021/03/24 11:22:56;;;;;;;15.65;10.75;;;25.10;43.30;;;;;;4979604;28;20129;-86
2021/03/24 11:25:42;;;;;;;22.75;10.27;;;25.00;43.10;;;;;;4979263;28;20128;-85
2021/03/24 11:28:31;;;;;;;15.80;11.43;;;26.10;40.60;;;;;;4996441;28;20090;-85
2021/03/24 11:31:22;;;;;;;15.93;11.63;;;25.40;40.40;;;;;;4979276;28;20410;-86
2021/03/24 11:34:08;;;;;;;24.65;11.25;;;24.20;41.90;;;;;;4994621;28;20053;-86
2021/03/24 11:36:46;;;;;;;21.17;12.85;;;24.40;43.00;;;;;;4978817;28;20054;-85
2021/03/24 11:39:20;;;;;;;39.58;13.70;;;23.60;44.30;;;;;;4996153;28;20081;-86
2021/03/24 11:41:47;;;;;;;15.90;12.02;;;22.60;44.60;;;;;;4996107;28;20133;-86
2021/03/24 11:44:14;;;;;;;18.05;12.18;;;22.50;45.90;;;;;;4978926;28;20089;-85
2021/03/24 11:46:40;;;;;;;17.42;11.73;;;22.50;44.70;;;;;;4978194;28;20094;-86
2021/03/24 11:49:15;;;;;;;18.90;12.35;;;23.10;45.40;;;;;;4978549;28;20510;-85
2021/03/24 11:52:05;;;;;;;25.27;12.68;;;22.80;45.10;;;;;;4994551;28;20057;-85
2021/03/24 11:54:46;;;;;;;15.77;11.02;;;22.40;45.30;;;;;;4978941;28;20120;-86
2021/03/24 11:57:22;;;;;;;21.67;12.30;;;22.90;45.90;;;;;;4977570;28;20056;-85
2021/03/24 12:00:08;;;;;;;16.30;11.82;;;23.20;44.50;;;;;;4997359;28;20137;-86
2021/03/24 12:02:55;;;;;;;24.52;11.52;;;23.20;43.50;;;;;;4989389;28;20050;-86
2021/03/24 12:05:47;;;;;;;16.85;12.07;;;23.60;43.70;;;;;;4978558;28;20042;-85
2021/03/24 12:08:35;;;;;;;13.57;10.95;;;23.50;45.50;;;;;;4995611;28;20050;-86
2021/03/24 12:11:19;;;;;;;31.35;12.32;;;24.20;44.10;;;;;;4995034;28;20487;-85
2021/03/24 12:13:46;;;;;;;17.60;11.15;;;23.50;44.20;;;;;;4995458;28;20064;-85
2021/03/24 12:16:14;;;;;;;19.05;10.52;;;23.00;43.70;;;;;;4995152;28;20129;-86
2021/03/24 12:18:50;;;;;;;16.33;11.52;;;23.20;44.90;;;;;;4978498;28;20054;-86
2021/03/24 12:21:29;;;;;;;22.75;10.95;;;23.10;43.10;;;;;;4994998;28;20560;-86
2021/03/24 12:24:00;;;;;;;15.77;11.23;;;22.20;45.70;;;;;;4995189;28;20046;-86
2021/03/24 12:26:34;;;;;;;14.82;11.07;;;22.50;45.60;;;;;;4978078;28;20100;-85
2021/03/24 12:29:07;;;;;;;20.48;11.90;;;22.60;46.50;;;;;;4978149;28;20054;-85
2021/03/24 12:31:45;;;;;;;14.35;11.15;;;22.40;45.70;;;;;;4977664;28;20086;-85
2021/03/24 12:34:15;;;;;;;22.58;10.98;;;21.90;47.00;;;;;;4977840;28;20132;-85
2021/03/24 12:36:51;;;;;;;15.32;11.02;;;21.50;47.50;;;;;;4994778;28;20050;-85
2021/03/24 12:39:34;;;;;;;16.70;10.35;;;20.90;47.00;;;;;;4977497;28;20487;-85
2021/03/24 12:42:22;;;;;;;18.70;11.20;;;20.40;47.80;;;;;;4977521;28;20511;-85
2021/03/24 12:44:48;;;;;;;20.63;11.63;;;20.00;49.40;;;;;;4981741;28;20121;-85
2021/03/24 12:47:37;;;;;;;15.38;11.32;;;19.90;50.00;;;;;;4957604;28;20058;-85
2021/03/24 12:50:15;;;;;;;15.55;10.85;;;19.80;49.90;;;;;;4975217;28;20125;-85
2021/03/24 12:52:41;;;;;;;24.92;11.63;;;19.80;50.00;;;;;;4958044;28;20097;-85
2021/03/24 12:55:10;;;;;;;22.40;11.25;;;19.50;50.50;;;;;;4966374;28;20138;-85
2021/03/24 12:57:54;;;;;;;13.57;10.32;;;19.20;50.10;;;;;;4957581;28;20057;-85
2021/03/24 13:00:41;;;;;;;16.95;10.63;;;19.00;49.90;;;;;;4957936;28;20059;-85
2021/03/24 13:03:17;;;;;;;16.80;10.55;;;19.10;51.90;;;;;;4974817;28;20058;-85
2021/03/24 13:06:19;;;;;;;33.05;11.75;;;19.30;50.20;;;;;;4973931;28;20054;-85
2021/03/24 13:09:09;;;;;;;22.90;10.48;;;19.40;51.10;;;;;;4973785;28;20078;-85
2021/03/24 13:12:06;;;;;;;14.85;10.32;;;19.50;50.70;;;;;;4974572;28;20118;-85
2021/03/24 13:14:42;;;;;;;13.88;10.02;;;19.20;50.40;;;;;;4973769;28;20047;-85
2021/03/24 13:17:15;;;;;;;13.18;9.60;;;19.20;51.10;;;;;;4976636;28;20129;-85
2021/03/24 13:20:13;;;;;;;20.50;11.20;;;19.40;52.00;;;;;;4978559;28;20047;-85
2021/03/24 13:22:42;;;;;;;13.60;10.80;;;19.40;51.20;;;;;;4939780;28;20050;-84
2021/03/24 13:25:37;;;;;;;19.70;11.10;;;19.20;50.50;;;;;;4974820;28;20101;-85
2021/03/24 13:28:18;;;;;;;21.35;12.10;;;19.30;50.50;;;;;;4973499;28;20051;-86
2021/03/24 13:31:01;;;;;;;24.50;11.43;;;19.00;50.50;;;;;;4970366;28;20050;-85
2021/03/24 13:33:55;;;;;;;21.08;11.75;;;18.90;52.30;;;;;;4957681;28;20133;-85